Cosby, Tennessee
Current Conditions -  °F | °C
As of 10:55 PM on Sunday 23 Nov 2014 (Local Time) from KGKT Reporting Station
Broken Clouds Broken Clouds  
Wind Chill: 64°   Ceiling: 8500
Heat Index: 64°   Visibility: 10mi
Dew Point: 50°   Wind: 16mph
Humidity: 59%   Direction: 220°SW
Pressure: 29.58"   Gusts: NA
Location:  35.82°N, 83.23°W
Report Text: KGKT 240355Z AUTO 22014KT 10SM FEW055 SCT070 BKN085 18/10 A2958 RMK
Loading
Personal Weather Stations






























Interactive Weather Map New forecast layout! Learn more

10-Day Weather Forecast

Advertisements
Track Severe Weather on mobile